Alexis, Illinois
Current Conditions -  °F | °C
As of 12:15 AM on Wednesday 28 Jan 2015 (Local Time) from KGBG Reporting Station
Overcast Overcast  
Wind Chill: -5°   Ceiling: 1000
Heat Index: -2°   Visibility: 7mi
Dew Point: -4°   Wind: 6mph
Humidity: 90%   Direction: 150°SSE
Pressure: 30.22"   Gusts: NA
Location:  41.06°N, 90.56°W
Report Text: KGBG 280615Z AUTO 15005KT 7SM OVC010 M02/M03 A3022 RMK AO2 T10201035
Loading
Personal Weather Stations






























Interactive Weather Map New forecast layout! Learn more

10-Day Weather Forecast

Advertisements
Track Severe Weather on mobile